sensor_id;sensor_type;location;lat;lon;timestamp;P1;durP1;ratioP1;P2;durP2;ratioP2
50433;SDS011;36361;38.954;-9.002;2023-03-01T00:00:39;8.47;;;3.00;;
50433;SDS011;36361;38.954;-9.002;2023-03-01T00:01:40;8.53;;;2.90;;
50433;SDS011;36361;38.954;-9.002;2023-03-01T00:02:41;11.00;;;2.43;;
50433;SDS011;36361;38.954;-9.002;2023-03-01T00:03:42;13.37;;;3.43;;
50433;SDS011;36361;38.954;-9.002;2023-03-01T00:04:43;9.50;;;2.67;;
50433;SDS011;36361;38.954;-9.002;2023-03-01T00:05:44;8.33;;;3.37;;
50433;SDS011;36361;38.954;-9.002;2023-03-01T00:06:46;10.60;;;2.83;;
50433;SDS011;36361;38.954;-9.002;2023-03-01T00:07:47;11.47;;;3.03;;
50433;SDS011;36361;38.954;-9.002;2023-03-01T00:08:52;7.70;;;2.77;;
50433;SDS011;36361;38.954;-9.002;2023-03-01T00:09:53;10.97;;;3.00;;
50433;SDS011;36361;38.954;-9.002;2023-03-01T00:11:04;12.20;;;2.97;;
50433;SDS011;36361;38.954;-9.002;2023-03-01T00:12:08;11.20;;;3.47;;
50433;SDS011;36361;38.954;-9.002;2023-03-01T00:13:09;7.13;;;2.90;;
50433;SDS011;36361;38.954;-9.002;2023-03-01T00:14:11;9.90;;;3.20;;
50433;SDS011;36361;38.954;-9.002;2023-03-01T00:15:12;8.60;;;2.97;;
50433;SDS011;36361;38.954;-9.002;2023-03-01T00:16:17;13.60;;;3.50;;
50433;SDS011;36361;38.954;-9.002;2023-03-01T00:17:24;8.00;;;3.13;;
50433;SDS011;36361;38.954;-9.002;2023-03-01T00:18:24;8.90;;;3.17;;
50433;SDS011;36361;38.954;-9.002;2023-03-01T00:19:25;7.70;;;2.87;;
50433;SDS011;36361;38.954;-9.002;2023-03-01T00:20:26;15.10;;;2.77;;
50433;SDS011;36361;38.954;-9.002;2023-03-01T00:21:27;9.70;;;3.33;;
50433;SDS011;36361;38.954;-9.002;2023-03-01T00:22:29;8.90;;;2.60;;
50433;SDS011;36361;38.954;-9.002;2023-03-01T00:23:30;7.80;;;2.53;;
50433;SDS011;36361;38.954;-9.002;2023-03-01T00:24:31;9.57;;;2.60;;
50433;SDS011;36361;38.954;-9.002;2023-03-01T00:25:32;10.63;;;2.87;;
50433;SDS011;36361;38.954;-9.002;2023-03-01T00:26:33;8.13;;;2.13;;
50433;SDS011;36361;38.954;-9.002;2023-03-01T00:27:34;9.67;;;2.80;;
50433;SDS011;36361;38.954;-9.002;2023-03-01T00:28:35;7.80;;;2.60;;
50433;SDS011;36361;38.954;-9.002;2023-03-01T00:29:36;7.03;;;2.73;;
50433;SDS011;36361;38.954;-9.002;2023-03-01T00:30:37;7.63;;;2.53;;
50433;SDS011;36361;38.954;-9.002;2023-03-01T00:31:38;10.20;;;2.93;;
50433;SDS011;36361;38.954;-9.002;2023-03-01T00:32:39;8.77;;;2.90;;
50433;SDS011;36361;38.954;-9.002;2023-03-01T00:33:40;10.43;;;3.00;;
50433;SDS011;36361;38.954;-9.002;2023-03-01T00:34:42;11.13;;;2.93;;
50433;SDS011;36361;38.954;-9.002;2023-03-01T00:35:54;8.43;;;2.87;;
50433;SDS011;36361;38.954;-9.002;2023-03-01T00:36:55;13.00;;;2.97;;
50433;SDS011;36361;38.954;-9.002;2023-03-01T00:38:05;11.10;;;2.67;;
50433;SDS011;36361;38.954;-9.002;2023-03-01T00:39:09;10.67;;;2.50;;
50433;SDS011;36361;38.954;-9.002;2023-03-01T00:40:12;12.27;;;3.20;;
50433;SDS011;36361;38.954;-9.002;2023-03-01T00:41:17;9.47;;;3.13;;
50433;SDS011;36361;38.954;-9.002;2023-03-01T00:42:19;6.43;;;2.20;;
50433;SDS011;36361;38.954;-9.002;2023-03-01T00:43:20;8.87;;;2.60;;
50433;SDS011;36361;38.954;-9.002;2023-03-01T00:44:21;4.87;;;2.07;;
50433;SDS011;36361;38.954;-9.002;2023-03-01T00:45:23;10.63;;;2.60;;
50433;SDS011;36361;38.954;-9.002;2023-03-01T00:46:25;10.23;;;2.40;;
50433;SDS011;36361;38.954;-9.002;2023-03-01T00:47:29;12.20;;;3.10;;
50433;SDS011;36361;38.954;-9.002;2023-03-01T00:48:30;11.30;;;3.03;;
50433;SDS011;36361;38.954;-9.002;2023-03-01T00:49:31;9.30;;;3.17;;
50433;SDS011;36361;38.954;-9.002;2023-03-01T00:50:32;11.37;;;2.40;;
50433;SDS011;36361;38.954;-9.002;2023-03-01T00:51:33;8.83;;;2.57;;
50433;SDS011;36361;38.954;-9.002;2023-03-01T00:52:34;13.00;;;2.87;;
50433;SDS011;36361;38.954;-9.002;2023-03-01T00:53:35;10.13;;;2.97;;
50433;SDS011;36361;38.954;-9.002;2023-03-01T00:54:37;8.00;;;2.43;;
50433;SDS011;36361;38.954;-9.002;2023-03-01T00:55:37;9.00;;;3.20;;
50433;SDS011;36361;38.954;-9.002;2023-03-01T00:56:44;7.17;;;3.17;;
50433;SDS011;36361;38.954;-9.002;2023-03-01T00:57:45;8.03;;;2.90;;
50433;SDS011;36361;38.954;-9.002;2023-03-01T00:58:49;11.80;;;3.83;;
50433;SDS011;36361;38.954;-9.002;2023-03-01T00:59:51;9.30;;;2.90;;
50433;SDS011;36361;38.954;-9.002;2023-03-01T01:00:52;8.07;;;3.10;;
50433;SDS011;36361;38.954;-9.002;2023-03-01T01:01:54;7.10;;;2.57;;
50433;SDS011;36361;38.954;-9.002;2023-03-01T01:02:56;11.13;;;3.20;;
50433;SDS011;36361;38.954;-9.002;2023-03-01T01:04:07;11.30;;;3.23;;
50433;SDS011;36361;38.954;-9.002;2023-03-01T01:05:09;9.20;;;3.03;;
50433;SDS011;36361;38.954;-9.002;2023-03-01T01:06:14;9.43;;;2.80;;
50433;SDS011;36361;38.954;-9.002;2023-03-01T01:07:26;6.43;;;2.37;;
50433;SDS011;36361;38.954;-9.002;2023-03-01T01:08:31;7.23;;;2.80;;
50433;SDS011;36361;38.954;-9.002;2023-03-01T01:09:32;8.87;;;2.70;;
50433;SDS011;36361;38.954;-9.002;2023-03-01T01:10:34;8.63;;;2.77;;
50433;SDS011;36361;38.954;-9.002;2023-03-01T01:11:35;9.67;;;2.60;;
50433;SDS011;36361;38.954;-9.002;2023-03-01T01:12:36;8.77;;;2.70;;
50433;SDS011;36361;38.954;-9.002;2023-03-01T01:13:38;6.53;;;2.60;;
50433;SDS011;36361;38.954;-9.002;2023-03-01T01:14:39;6.97;;;2.50;;
50433;SDS011;36361;38.954;-9.002;2023-03-01T01:15:40;7.70;;;3.50;;
50433;SDS011;36361;38.954;-9.002;2023-03-01T01:16:41;8.53;;;2.73;;
50433;SDS011;36361;38.954;-9.002;2023-03-01T01:17:42;7.17;;;2.33;;
50433;SDS011;36361;38.954;-9.002;2023-03-01T01:18:44;8.83;;;2.37;;
50433;SDS011;36361;38.954;-9.002;2023-03-01T01:19:45;8.77;;;2.10;;
50433;SDS011;36361;38.954;-9.002;2023-03-01T01:20:46;10.53;;;3.03;;
50433;SDS011;36361;38.954;-9.002;2023-03-01T01:21:47;6.93;;;2.43;;
50433;SDS011;36361;38.954;-9.002;2023-03-01T01:22:48;9.97;;;2.50;;
50433;SDS011;36361;38.954;-9.002;2023-03-01T01:23:49;6.27;;;2.73;;
50433;SDS011;36361;38.954;-9.002;2023-03-01T01:24:51;12.10;;;2.80;;
50433;SDS011;36361;38.954;-9.002;2023-03-01T01:26:13;9.10;;;2.83;;
50433;SDS011;36361;38.954;-9.002;2023-03-01T01:27:24;8.57;;;2.93;;
50433;SDS011;36361;38.954;-9.002;2023-03-01T01:28:25;7.80;;;2.60;;
50433;SDS011;36361;38.954;-9.002;2023-03-01T01:29:26;8.53;;;2.90;;
50433;SDS011;36361;38.954;-9.002;2023-03-01T01:30:27;7.33;;;2.80;;
50433;SDS011;36361;38.954;-9.002;2023-03-01T01:31:28;9.33;;;2.10;;
50433;SDS011;36361;38.954;-9.002;2023-03-01T01:32:30;9.80;;;2.80;;
50433;SDS011;36361;38.954;-9.002;2023-03-01T01:33:32;8.53;;;2.37;;
50433;SDS011;36361;38.954;-9.002;2023-03-01T01:34:39;5.57;;;2.17;;
50433;SDS011;36361;38.954;-9.002;2023-03-01T01:35:41;8.37;;;2.57;;
50433;SDS011;36361;38.954;-9.002;2023-03-01T01:37:03;6.53;;;2.37;;
50433;SDS011;36361;38.954;-9.002;2023-03-01T01:38:07;6.00;;;1.97;;
50433;SDS011;36361;38.954;-9.002;2023-03-01T01:39:09;8.97;;;2.47;;
50433;SDS011;36361;38.954;-9.002;2023-03-01T01:40:13;6.93;;;2.13;;
50433;SDS011;36361;38.954;-9.002;2023-03-01T01:41:16;7.27;;;2.10;;
50433;SDS011;36361;38.954;-9.002;2023-03-01T01:42:18;7.53;;;2.30;;
50433;SDS011;36361;38.954;-9.002;2023-03-01T01:43:24;7.93;;;2.13;;
50433;SDS011;36361;38.954;-9.002;2023-03-01T01:44:28;7.80;;;2.20;;
50433;SDS011;36361;38.954;-9.002;2023-03-01T01:45:32;10.93;;;2.57;;
50433;SDS011;36361;38.954;-9.002;2023-03-01T01:46:35;9.57;;;2.47;;
50433;SDS011;36361;38.954;-9.002;2023-03-01T01:47:39;7.20;;;1.93;;
50433;SDS011;36361;38.954;-9.002;2023-03-01T01:48:44;7.93;;;2.83;;
50433;SDS011;36361;38.954;-9.002;2023-03-01T01:49:49;6.53;;;1.70;;
50433;SDS011;36361;38.954;-9.002;2023-03-01T01:50:55;9.80;;;2.10;;
50433;SDS011;36361;38.954;-9.002;2023-03-01T01:52:08;5.30;;;2.13;;
50433;SDS011;36361;38.954;-9.002;2023-03-01T01:53:12;6.17;;;1.93;;
50433;SDS011;36361;38.954;-9.002;2023-03-01T01:54:20;6.77;;;2.60;;
50433;SDS011;36361;38.954;-9.002;2023-03-01T01:55:26;7.00;;;2.23;;
50433;SDS011;36361;38.954;-9.002;2023-03-01T01:56:28;7.57;;;2.23;;
50433;SDS011;36361;38.954;-9.002;2023-03-01T01:57:34;5.03;;;1.90;;
50433;SDS011;36361;38.954;-9.002;2023-03-01T01:58:39;6.78;;;2.30;;
50433;SDS011;36361;38.954;-9.002;2023-03-01T01:59:42;7.47;;;2.23;;
50433;SDS011;36361;38.954;-9.002;2023-03-01T02:00:47;7.33;;;2.07;;
50433;SDS011;36361;38.954;-9.002;2023-03-01T02:01:50;6.93;;;2.33;;
50433;SDS011;36361;38.954;-9.002;2023-03-01T02:03:03;7.50;;;2.37;;
50433;SDS011;36361;38.954;-9.002;2023-03-01T02:04:09;4.87;;;2.20;;
50433;SDS011;36361;38.954;-9.002;2023-03-01T02:05:26;13.80;;;3.10;;
50433;SDS011;36361;38.954;-9.002;2023-03-01T02:06:44;6.57;;;2.40;;
50433;SDS011;36361;38.954;-9.002;2023-03-01T02:07:53;6.33;;;2.50;;
50433;SDS011;36361;38.954;-9.002;2023-03-01T02:09:00;8.27;;;2.57;;
50433;SDS011;36361;38.954;-9.002;2023-03-01T02:10:05;9.77;;;2.43;;
50433;SDS011;36361;38.954;-9.002;2023-03-01T02:11:07;7.27;;;2.50;;
50433;SDS011;36361;38.954;-9.002;2023-03-01T02:12:09;8.03;;;2.70;;
50433;SDS011;36361;38.954;-9.002;2023-03-01T02:13:10;6.03;;;2.23;;
50433;SDS011;36361;38.954;-9.002;2023-03-01T02:14:12;6.83;;;2.30;;
50433;SDS011;36361;38.954;-9.002;2023-03-01T02:15:14;12.47;;;2.63;;
50433;SDS011;36361;38.954;-9.002;2023-03-01T02:16:16;10.53;;;2.37;;
50433;SDS011;36361;38.954;-9.002;2023-03-01T02:17:18;7.50;;;2.13;;
50433;SDS011;36361;38.954;-9.002;2023-03-01T02:18:22;6.57;;;2.50;;
50433;SDS011;36361;38.954;-9.002;2023-03-01T02:19:35;5.03;;;2.27;;
50433;SDS011;36361;38.954;-9.002;2023-03-01T02:22:12;5.67;;;2.43;;
50433;SDS011;36361;38.954;-9.002;2023-03-01T02:23:21;10.83;;;2.87;;
50433;SDS011;36361;38.954;-9.002;2023-03-01T02:26:57;8.53;;;2.63;;
50433;SDS011;36361;38.954;-9.002;2023-03-01T02:29:00;4.40;;;1.80;;
50433;SDS011;36361;38.954;-9.002;2023-03-01T02:30:02;6.00;;;2.20;;
50433;SDS011;36361;38.954;-9.002;2023-03-01T02:31:04;9.47;;;2.70;;
50433;SDS011;36361;38.954;-9.002;2023-03-01T02:32:26;7.30;;;2.73;;
50433;SDS011;36361;38.954;-9.002;2023-03-01T02:33:27;7.83;;;2.30;;
50433;SDS011;36361;38.954;-9.002;2023-03-01T02:34:32;4.97;;;2.23;;
50433;SDS011;36361;38.954;-9.002;2023-03-01T02:35:35;7.13;;;2.20;;
50433;SDS011;36361;38.954;-9.002;2023-03-01T02:36:40;6.50;;;2.40;;
50433;SDS011;36361;38.954;-9.002;2023-03-01T02:37:45;6.47;;;2.53;;
50433;SDS011;36361;38.954;-9.002;2023-03-01T02:38:48;8.10;;;2.10;;
50433;SDS011;36361;38.954;-9.002;2023-03-01T02:39:56;6.70;;;2.40;;
50433;SDS011;36361;38.954;-9.002;2023-03-01T02:41:04;8.27;;;2.30;;
50433;SDS011;36361;38.954;-9.002;2023-03-01T02:42:13;6.00;;;2.77;;
50433;SDS011;36361;38.954;-9.002;2023-03-01T02:43:19;4.87;;;2.10;;
50433;SDS011;36361;38.954;-9.002;2023-03-01T02:44:26;8.13;;;2.90;;
50433;SDS011;36361;38.954;-9.002;2023-03-01T02:45:27;6.43;;;2.10;;
50433;SDS011;36361;38.954;-9.002;2023-03-01T02:46:29;8.83;;;2.93;;
50433;SDS011;36361;38.954;-9.002;2023-03-01T02:47:30;6.80;;;2.37;;
50433;SDS011;36361;38.954;-9.002;2023-03-01T02:48:42;5.87;;;2.40;;
50433;SDS011;36361;38.954;-9.002;2023-03-01T02:49:50;5.65;;;1.88;;
50433;SDS011;36361;38.954;-9.002;2023-03-01T02:51:05;7.40;;;2.40;;
50433;SDS011;36361;38.954;-9.002;2023-03-01T02:55:10;6.73;;;2.57;;
50433;SDS011;36361;38.954;-9.002;2023-03-01T02:56:15;6.03;;;2.63;;
50433;SDS011;36361;38.954;-9.002;2023-03-01T02:57:16;7.93;;;2.30;;
50433;SDS011;36361;38.954;-9.002;2023-03-01T02:58:19;7.33;;;2.23;;
50433;SDS011;36361;38.954;-9.002;2023-03-01T02:59:22;7.13;;;2.30;;
50433;SDS011;36361;38.954;-9.002;2023-03-01T03:00:30;6.90;;;2.53;;
50433;SDS011;36361;38.954;-9.002;2023-03-01T03:01:46;5.53;;;2.15;;
50433;SDS011;36361;38.954;-9.002;2023-03-01T03:02:51;6.57;;;2.33;;
50433;SDS011;36361;38.954;-9.002;2023-03-01T03:03:57;4.95;;;2.35;;
50433;SDS011;36361;38.954;-9.002;2023-03-01T03:05:03;7.27;;;2.10;;
50433;SDS011;36361;38.954;-9.002;2023-03-01T03:06:12;6.27;;;2.03;;
50433;SDS011;36361;38.954;-9.002;2023-03-01T03:07:15;6.57;;;2.43;;
50433;SDS011;36361;38.954;-9.002;2023-03-01T03:08:17;5.53;;;2.10;;
50433;SDS011;36361;38.954;-9.002;2023-03-01T03:09:25;6.03;;;2.60;;
50433;SDS011;36361;38.954;-9.002;2023-03-01T03:10:30;7.03;;;2.00;;
50433;SDS011;36361;38.954;-9.002;2023-03-01T03:11:33;5.03;;;2.30;;
50433;SDS011;36361;38.954;-9.002;2023-03-01T03:12:37;6.37;;;1.73;;
50433;SDS011;36361;38.954;-9.002;2023-03-01T03:13:39;5.03;;;2.07;;
50433;SDS011;36361;38.954;-9.002;2023-03-01T03:14:49;4.73;;;1.80;;
50433;SDS011;36361;38.954;-9.002;2023-03-01T03:15:50;7.17;;;2.37;;
50433;SDS011;36361;38.954;-9.002;2023-03-01T03:16:52;7.80;;;2.50;;
50433;SDS011;36361;38.954;-9.002;2023-03-01T03:17:55;7.50;;;1.90;;
50433;SDS011;36361;38.954;-9.002;2023-03-01T03:18:57;4.40;;;1.50;;
50433;SDS011;36361;38.954;-9.002;2023-03-01T03:20:05;6.00;;;1.70;;
50433;SDS011;36361;38.954;-9.002;2023-03-01T03:21:12;5.50;;;1.83;;
50433;SDS011;36361;38.954;-9.002;2023-03-01T03:22:14;4.53;;;1.60;;
50433;SDS011;36361;38.954;-9.002;2023-03-01T03:23:16;7.83;;;2.00;;
50433;SDS011;36361;38.954;-9.002;2023-03-01T03:24:17;5.40;;;1.70;;
50433;SDS011;36361;38.954;-9.002;2023-03-01T03:25:19;5.47;;;1.80;;
50433;SDS011;36361;38.954;-9.002;2023-03-01T03:26:22;4.97;;;2.10;;
50433;SDS011;36361;38.954;-9.002;2023-03-01T03:27:26;5.50;;;1.70;;
50433;SDS011;36361;38.954;-9.002;2023-03-01T03:28:28;6.20;;;1.77;;
50433;SDS011;36361;38.954;-9.002;2023-03-01T03:29:31;6.20;;;1.63;;
50433;SDS011;36361;38.954;-9.002;2023-03-01T03:30:35;7.00;;;2.20;;
50433;SDS011;36361;38.954;-9.002;2023-03-01T03:31:39;6.30;;;1.87;;
50433;SDS011;36361;38.954;-9.002;2023-03-01T03:32:42;3.83;;;1.60;;
50433;SDS011;36361;38.954;-9.002;2023-03-01T03:33:52;6.60;;;1.83;;
50433;SDS011;36361;38.954;-9.002;2023-03-01T03:34:54;6.57;;;2.00;;
50433;SDS011;36361;38.954;-9.002;2023-03-01T03:35:57;4.23;;;1.73;;
50433;SDS011;36361;38.954;-9.002;2023-03-01T03:37:05;5.23;;;1.63;;
50433;SDS011;36361;38.954;-9.002;2023-03-01T03:38:27;5.83;;;2.47;;
50433;SDS011;36361;38.954;-9.002;2023-03-01T03:39:29;5.17;;;1.70;;
50433;SDS011;36361;38.954;-9.002;2023-03-01T03:40:36;5.30;;;1.70;;
50433;SDS011;36361;38.954;-9.002;2023-03-01T03:41:40;9.53;;;2.20;;
50433;SDS011;36361;38.954;-9.002;2023-03-01T03:42:41;4.83;;;1.80;;
50433;SDS011;36361;38.954;-9.002;2023-03-01T03:43:43;5.30;;;1.80;;
50433;SDS011;36361;38.954;-9.002;2023-03-01T03:44:45;3.60;;;1.97;;
50433;SDS011;36361;38.954;-9.002;2023-03-01T03:45:48;5.70;;;2.13;;
50433;SDS011;36361;38.954;-9.002;2023-03-01T03:46:51;7.10;;;2.23;;
50433;SDS011;36361;38.954;-9.002;2023-03-01T03:47:52;5.10;;;2.07;;
50433;SDS011;36361;38.954;-9.002;2023-03-01T03:48:54;5.83;;;2.10;;
50433;SDS011;36361;38.954;-9.002;2023-03-01T03:49:57;7.87;;;1.93;;
50433;SDS011;36361;38.954;-9.002;2023-03-01T03:50:58;4.50;;;1.80;;
50433;SDS011;36361;38.954;-9.002;2023-03-01T03:52:01;5.77;;;2.20;;
50433;SDS011;36361;38.954;-9.002;2023-03-01T03:53:04;7.37;;;2.27;;
50433;SDS011;36361;38.954;-9.002;2023-03-01T03:54:07;5.97;;;2.60;;
50433;SDS011;36361;38.954;-9.002;2023-03-01T03:55:10;4.43;;;2.13;;
50433;SDS011;36361;38.954;-9.002;2023-03-01T03:56:12;4.70;;;2.30;;
50433;SDS011;36361;38.954;-9.002;2023-03-01T03:57:15;3.63;;;1.60;;
50433;SDS011;36361;38.954;-9.002;2023-03-01T03:58:17;4.53;;;1.90;;
50433;SDS011;36361;38.954;-9.002;2023-03-01T03:59:20;6.73;;;2.20;;
50433;SDS011;36361;38.954;-9.002;2023-03-01T04:00:22;5.73;;;1.87;;
50433;SDS011;36361;38.954;-9.002;2023-03-01T04:01:24;5.70;;;2.00;;
50433;SDS011;36361;38.954;-9.002;2023-03-01T04:02:25;7.40;;;2.30;;
50433;SDS011;36361;38.954;-9.002;2023-03-01T04:03:28;4.57;;;2.10;;
50433;SDS011;36361;38.954;-9.002;2023-03-01T04:04:30;6.40;;;2.83;;
50433;SDS011;36361;38.954;-9.002;2023-03-01T04:05:32;5.87;;;1.90;;
50433;SDS011;36361;38.954;-9.002;2023-03-01T04:06:34;9.43;;;2.30;;
50433;SDS011;36361;38.954;-9.002;2023-03-01T04:07:36;8.03;;;2.43;;
50433;SDS011;36361;38.954;-9.002;2023-03-01T04:08:39;4.77;;;2.07;;
50433;SDS011;36361;38.954;-9.002;2023-03-01T04:09:41;4.30;;;2.00;;
50433;SDS011;36361;38.954;-9.002;2023-03-01T04:10:45;7.73;;;2.37;;
50433;SDS011;36361;38.954;-9.002;2023-03-01T04:11:48;6.70;;;2.30;;
50433;SDS011;36361;38.954;-9.002;2023-03-01T04:12:55;5.97;;;2.13;;
50433;SDS011;36361;38.954;-9.002;2023-03-01T04:13:57;4.93;;;2.30;;
50433;SDS011;36361;38.954;-9.002;2023-03-01T04:15:00;7.63;;;2.30;;
50433;SDS011;36361;38.954;-9.002;2023-03-01T04:16:13;4.47;;;2.00;;
50433;SDS011;36361;38.954;-9.002;2023-03-01T04:17:14;3.93;;;2.03;;
50433;SDS011;36361;38.954;-9.002;2023-03-01T04:18:16;5.13;;;2.10;;
50433;SDS011;36361;38.954;-9.002;2023-03-01T04:19:19;4.77;;;2.00;;
50433;SDS011;36361;38.954;-9.002;2023-03-01T04:20:24;6.55;;;2.65;;
50433;SDS011;36361;38.954;-9.002;2023-03-01T04:21:29;5.90;;;2.40;;
50433;SDS011;36361;38.954;-9.002;2023-03-01T04:22:31;4.60;;;1.87;;
50433;SDS011;36361;38.954;-9.002;2023-03-01T04:23:34;7.47;;;2.20;;
50433;SDS011;36361;38.954;-9.002;2023-03-01T04:24:36;5.00;;;2.00;;
50433;SDS011;36361;38.954;-9.002;2023-03-01T04:25:42;10.03;;;2.50;;
50433;SDS011;36361;38.954;-9.002;2023-03-01T04:26:47;4.25;;;2.08;;
50433;SDS011;36361;38.954;-9.002;2023-03-01T04:27:48;7.83;;;2.50;;
50433;SDS011;36361;38.954;-9.002;2023-03-01T04:28:50;7.43;;;2.27;;
50433;SDS011;36361;38.954;-9.002;2023-03-01T04:29:54;8.70;;;2.37;;
50433;SDS011;36361;38.954;-9.002;2023-03-01T04:30:56;7.37;;;2.27;;
50433;SDS011;36361;38.954;-9.002;2023-03-01T04:32:01;6.20;;;2.50;;
50433;SDS011;36361;38.954;-9.002;2023-03-01T04:33:04;7.60;;;3.00;;
50433;SDS011;36361;38.954;-9.002;2023-03-01T04:34:07;6.55;;;2.25;;
50433;SDS011;36361;38.954;-9.002;2023-03-01T04:35:09;5.40;;;2.00;;
50433;SDS011;36361;38.954;-9.002;2023-03-01T04:36:12;7.32;;;2.58;;
50433;SDS011;36361;38.954;-9.002;2023-03-01T04:37:15;6.10;;;2.60;;
50433;SDS011;36361;38.954;-9.002;2023-03-01T04:38:18;8.68;;;2.53;;
50433;SDS011;36361;38.954;-9.002;2023-03-01T04:39:20;4.40;;;1.70;;
50433;SDS011;36361;38.954;-9.002;2023-03-01T04:40:22;4.75;;;2.00;;
50433;SDS011;36361;38.954;-9.002;2023-03-01T04:41:25;5.10;;;2.33;;
50433;SDS011;36361;38.954;-9.002;2023-03-01T04:42:29;6.10;;;2.33;;
50433;SDS011;36361;38.954;-9.002;2023-03-01T04:43:30;4.68;;;2.10;;
50433;SDS011;36361;38.954;-9.002;2023-03-01T04:44:33;9.70;;;2.35;;
50433;SDS011;36361;38.954;-9.002;2023-03-01T04:45:36;5.00;;;2.28;;
50433;SDS011;36361;38.954;-9.002;2023-03-01T04:46:45;4.55;;;1.80;;
50433;SDS011;36361;38.954;-9.002;2023-03-01T04:47:50;4.70;;;2.20;;
50433;SDS011;36361;38.954;-9.002;2023-03-01T04:48:54;6.55;;;2.05;;
50433;SDS011;36361;38.954;-9.002;2023-03-01T04:49:56;4.70;;;2.00;;
50433;SDS011;36361;38.954;-9.002;2023-03-01T04:50:59;4.35;;;2.30;;
50433;SDS011;36361;38.954;-9.002;2023-03-01T04:52:01;4.85;;;2.05;;
50433;SDS011;36361;38.954;-9.002;2023-03-01T04:53:03;3.60;;;1.80;;
50433;SDS011;36361;38.954;-9.002;2023-03-01T04:54:05;3.38;;;1.80;;
50433;SDS011;36361;38.954;-9.002;2023-03-01T04:55:09;4.75;;;2.25;;
50433;SDS011;36361;38.954;-9.002;2023-03-01T04:56:12;4.18;;;1.98;;
50433;SDS011;36361;38.954;-9.002;2023-03-01T04:57:18;8.50;;;2.17;;
50433;SDS011;36361;38.954;-9.002;2023-03-01T04:58:20;5.53;;;2.50;;
50433;SDS011;36361;38.954;-9.002;2023-03-01T04:59:23;5.47;;;2.40;;
50433;SDS011;36361;38.954;-9.002;2023-03-01T05:00:25;6.37;;;2.50;;
50433;SDS011;36361;38.954;-9.002;2023-03-01T05:01:26;5.37;;;2.10;;
50433;SDS011;36361;38.954;-9.002;2023-03-01T05:02:28;4.93;;;1.95;;
50433;SDS011;36361;38.954;-9.002;2023-03-01T05:03:30;5.78;;;2.25;;
50433;SDS011;36361;38.954;-9.002;2023-03-01T05:04:32;7.75;;;2.10;;
50433;SDS011;36361;38.954;-9.002;2023-03-01T05:05:37;7.25;;;2.10;;
50433;SDS011;36361;38.954;-9.002;2023-03-01T05:06:39;5.88;;;2.30;;
50433;SDS011;36361;38.954;-9.002;2023-03-01T05:07:41;5.60;;;2.05;;
50433;SDS011;36361;38.954;-9.002;2023-03-01T05:08:43;4.18;;;1.70;;
50433;SDS011;36361;38.954;-9.002;2023-03-01T05:09:45;4.90;;;2.20;;
50433;SDS011;36361;38.954;-9.002;2023-03-01T05:10:48;5.00;;;2.00;;
50433;SDS011;36361;38.954;-9.002;2023-03-01T05:11:52;5.88;;;2.28;;
50433;SDS011;36361;38.954;-9.002;2023-03-01T05:12:53;8.15;;;2.40;;
50433;SDS011;36361;38.954;-9.002;2023-03-01T05:13:57;3.95;;;2.00;;
50433;SDS011;36361;38.954;-9.002;2023-03-01T05:15:03;5.25;;;2.20;;
50433;SDS011;36361;38.954;-9.002;2023-03-01T05:16:07;4.43;;;2.35;;
50433;SDS011;36361;38.954;-9.002;2023-03-01T05:17:12;4.90;;;2.45;;
50433;SDS011;36361;38.954;-9.002;2023-03-01T05:18:14;6.40;;;1.85;;
50433;SDS011;36361;38.954;-9.002;2023-03-01T05:19:16;8.93;;;2.33;;
50433;SDS011;36361;38.954;-9.002;2023-03-01T05:20:26;6.25;;;1.88;;
50433;SDS011;36361;38.954;-9.002;2023-03-01T05:21:31;4.90;;;1.85;;
50433;SDS011;36361;38.954;-9.002;2023-03-01T05:22:34;7.05;;;2.22;;
50433;SDS011;36361;38.954;-9.002;2023-03-01T05:23:42;4.05;;;1.95;;
50433;SDS011;36361;38.954;-9.002;2023-03-01T05:24:48;6.75;;;2.05;;
50433;SDS011;36361;38.954;-9.002;2023-03-01T05:25:50;6.60;;;2.13;;
50433;SDS011;36361;38.954;-9.002;2023-03-01T05:26:53;5.25;;;2.17;;
50433;SDS011;36361;38.954;-9.002;2023-03-01T05:28:00;4.65;;;2.28;;
50433;SDS011;36361;38.954;-9.002;2023-03-01T05:29:06;6.40;;;2.25;;
50433;SDS011;36361;38.954;-9.002;2023-03-01T05:30:20;5.93;;;2.33;;
50433;SDS011;36361;38.954;-9.002;2023-03-01T05:31:23;5.97;;;2.17;;
50433;SDS011;36361;38.954;-9.002;2023-03-01T05:32:25;5.68;;;2.10;;
50433;SDS011;36361;38.954;-9.002;2023-03-01T05:33:27;5.72;;;2.05;;
50433;SDS011;36361;38.954;-9.002;2023-03-01T05:34:34;3.33;;;2.00;;
50433;SDS011;36361;38.954;-9.002;2023-03-01T05:35:37;4.38;;;1.88;;
50433;SDS011;36361;38.954;-9.002;2023-03-01T05:36:39;6.70;;;2.55;;
50433;SDS011;36361;38.954;-9.002;2023-03-01T05:37:45;7.57;;;2.80;;
50433;SDS011;36361;38.954;-9.002;2023-03-01T05:38:48;6.72;;;2.35;;
50433;SDS011;36361;38.954;-9.002;2023-03-01T05:39:51;6.28;;;2.42;;
50433;SDS011;36361;38.954;-9.002;2023-03-01T05:40:53;4.18;;;1.70;;
50433;SDS011;36361;38.954;-9.002;2023-03-01T05:41:56;3.95;;;1.90;;
50433;SDS011;36361;38.954;-9.002;2023-03-01T05:43:00;6.43;;;2.05;;
50433;SDS011;36361;38.954;-9.002;2023-03-01T05:44:06;5.22;;;1.80;;
50433;SDS011;36361;38.954;-9.002;2023-03-01T05:45:12;5.57;;;1.88;;
50433;SDS011;36361;38.954;-9.002;2023-03-01T05:46:15;4.07;;;1.90;;
50433;SDS011;36361;38.954;-9.002;2023-03-01T05:47:17;4.10;;;2.05;;
50433;SDS011;36361;38.954;-9.002;2023-03-01T05:48:19;5.38;;;1.50;;
50433;SDS011;36361;38.954;-9.002;2023-03-01T05:49:25;4.82;;;1.63;;
50433;SDS011;36361;38.954;-9.002;2023-03-01T05:50:34;4.18;;;1.45;;
50433;SDS011;36361;38.954;-9.002;2023-03-01T05:51:43;3.67;;;1.75;;
50433;SDS011;36361;38.954;-9.002;2023-03-01T05:52:55;3.17;;;1.67;;
50433;SDS011;36361;38.954;-9.002;2023-03-01T05:54:03;5.17;;;1.90;;
50433;SDS011;36361;38.954;-9.002;2023-03-01T05:55:06;4.73;;;1.70;;
50433;SDS011;36361;38.954;-9.002;2023-03-01T05:56:08;4.22;;;1.83;;
50433;SDS011;36361;38.954;-9.002;2023-03-01T05:57:11;3.40;;;1.80;;
50433;SDS011;36361;38.954;-9.002;2023-03-01T05:58:17;4.27;;;2.50;;
50433;SDS011;36361;38.954;-9.002;2023-03-01T05:59:20;5.80;;;2.57;;
50433;SDS011;36361;38.954;-9.002;2023-03-01T06:00:22;5.13;;;1.67;;
50433;SDS011;36361;38.954;-9.002;2023-03-01T06:01:24;5.03;;;1.80;;
50433;SDS011;36361;38.954;-9.002;2023-03-01T06:02:26;4.63;;;1.70;;
50433;SDS011;36361;38.954;-9.002;2023-03-01T06:03:29;3.60;;;1.53;;
50433;SDS011;36361;38.954;-9.002;2023-03-01T06:04:31;4.60;;;1.57;;
50433;SDS011;36361;38.954;-9.002;2023-03-01T06:05:33;5.43;;;2.20;;
50433;SDS011;36361;38.954;-9.002;2023-03-01T06:06:36;4.55;;;1.83;;
50433;SDS011;36361;38.954;-9.002;2023-03-01T06:07:41;3.63;;;1.53;;
50433;SDS011;36361;38.954;-9.002;2023-03-01T06:08:43;4.72;;;1.92;;
50433;SDS011;36361;38.954;-9.002;2023-03-01T06:09:44;2.80;;;1.30;;
50433;SDS011;36361;38.954;-9.002;2023-03-01T06:10:46;4.83;;;1.83;;
50433;SDS011;36361;38.954;-9.002;2023-03-01T06:11:48;5.17;;;1.80;;
50433;SDS011;36361;38.954;-9.002;2023-03-01T06:12:51;5.23;;;1.90;;
50433;SDS011;36361;38.954;-9.002;2023-03-01T06:13:53;4.43;;;2.00;;
50433;SDS011;36361;38.954;-9.002;2023-03-01T06:14:56;4.70;;;1.70;;
50433;SDS011;36361;38.954;-9.002;2023-03-01T06:15:58;5.43;;;2.53;;
50433;SDS011;36361;38.954;-9.002;2023-03-01T06:16:59;5.28;;;1.60;;
50433;SDS011;36361;38.954;-9.002;2023-03-01T06:18:01;6.60;;;1.67;;
50433;SDS011;36361;38.954;-9.002;2023-03-01T06:19:04;4.10;;;2.27;;
50433;SDS011;36361;38.954;-9.002;2023-03-01T06:21:15;4.83;;;2.27;;
50433;SDS011;36361;38.954;-9.002;2023-03-01T06:22:18;4.97;;;2.00;;
50433;SDS011;36361;38.954;-9.002;2023-03-01T06:23:20;5.00;;;2.30;;
50433;SDS011;36361;38.954;-9.002;2023-03-01T06:24:22;4.78;;;2.10;;
50433;SDS011;36361;38.954;-9.002;2023-03-01T06:25:25;6.57;;;1.97;;
50433;SDS011;36361;38.954;-9.002;2023-03-01T06:26:28;5.60;;;1.98;;
50433;SDS011;36361;38.954;-9.002;2023-03-01T06:27:30;3.53;;;2.00;;